Costigan, Maine
Current Conditions -  °F | °C
As of 11:53 AM on Saturday 25 Oct 2014 (Local Time) from KBGR Reporting Station
Few Clouds Few Clouds  
Wind Chill: 56°   Ceiling: Unl
Heat Index: 56°   Visibility: 10mi
Dew Point: 36°   Wind: 8mph
Humidity: 47%   Direction: 290°WNW
Pressure: 29.62"   Gusts: NA
Location:  45.01°N, 68.64°W
Report Text: KBGR 251553Z 29007KT 10SM FEW060 FEW120 13/02 A2962 RMK AO2 SLP029 T01330022
Loading
Personal Weather Stations






























Interactive Weather Map
Tropical Storm Tracking
New forecast layout! Learn more

10-Day Weather Forecast

Advertisements
Track Severe Weather on mobile